createdAt,value
2022-12-23T00:04:09.917Z,11.07
2022-12-23T00:09:12.916Z,11.20
2022-12-23T00:14:39.776Z,11.24
2022-12-23T00:19:42.342Z,11.13
2022-12-23T00:24:45.411Z,11.12
2022-12-23T00:29:49.298Z,11.03
2022-12-23T00:34:51.812Z,11.03
2022-12-23T00:40:11.842Z,11.02
2022-12-23T00:45:18.464Z,11.00
2022-12-23T00:50:21.011Z,10.85
2022-12-23T00:55:24.291Z,10.86
2022-12-23T01:00:42.209Z,10.74
2022-12-23T01:05:44.868Z,10.74
2022-12-23T01:10:47.458Z,10.77
2022-12-23T01:15:51.331Z,10.93
2022-12-23T01:20:53.849Z,11.01
2022-12-23T01:25:59.783Z,10.98
2022-12-23T01:31:05.514Z,11.17
2022-12-23T01:36:09.397Z,11.09
2022-12-23T01:41:37.928Z,11.12
2022-12-23T01:46:41.839Z,11.34
2022-12-23T01:51:44.430Z,11.12
2022-12-23T01:56:47.270Z,11.11
2022-12-23T02:02:08.893Z,11.18
2022-12-23T02:07:30.656Z,11.28
2022-12-23T02:12:48.157Z,11.23
2022-12-23T02:18:05.397Z,11.26
2022-12-23T02:23:33.554Z,11.04
2022-12-23T02:29:03.678Z,11.29
2022-12-23T02:34:17.196Z,11.26
2022-12-23T02:39:23.001Z,10.96
2022-12-23T02:44:34.470Z,11.04
2022-12-23T02:49:42.436Z,11.07
2022-12-23T02:54:49.512Z,10.61
2022-12-23T02:59:53.633Z,11.14
2022-12-23T03:04:57.488Z,11.11
2022-12-23T03:10:09.430Z,11.06
2022-12-23T03:15:25.389Z,11.31
2022-12-23T03:20:35.627Z,11.48
2022-12-23T03:25:43.842Z,11.41
2022-12-23T03:30:52.094Z,11.19
2022-12-23T03:36:01.268Z,11.16
2022-12-23T03:41:10.786Z,11.20
2022-12-23T03:53:40.337Z,10.97
2022-12-23T03:58:49.336Z,10.89
2022-12-23T04:04:01.279Z,10.77
2022-12-23T04:09:06.793Z,10.87
2022-12-23T04:14:09.478Z,10.83
2022-12-23T04:19:12.096Z,10.83
2022-12-23T04:24:16.167Z,10.97
2022-12-23T04:29:19.024Z,10.89
2022-12-23T04:34:21.691Z,10.88
2022-12-23T04:39:25.686Z,10.98
2022-12-23T04:44:28.272Z,10.76
2022-12-23T04:49:31.682Z,10.78
2022-12-23T04:54:39.278Z,10.63
2022-12-23T04:59:44.913Z,10.61
2022-12-23T05:04:47.464Z,10.60
2022-12-23T05:09:51.356Z,10.64
2022-12-23T05:14:54.285Z,10.62
2022-12-23T05:19:56.916Z,10.63
2022-12-23T05:25:00.783Z,11.01
2022-12-23T05:30:03.566Z,11.10
2022-12-23T05:35:06.942Z,11.12
2022-12-23T05:40:11.960Z,11.15
2022-12-23T05:45:14.719Z,11.02
2022-12-23T05:50:17.443Z,11.03
2022-12-23T05:55:21.295Z,10.85
2022-12-23T06:00:24.256Z,11.10
2022-12-23T06:05:26.826Z,11.15
2022-12-23T06:10:31.110Z,11.15
2022-12-23T06:15:33.654Z,11.18
2022-12-23T06:20:36.204Z,11.32
2022-12-23T06:25:40.522Z,10.89
2022-12-23T06:30:43.064Z,11.21
2022-12-23T06:35:45.591Z,10.85
2022-12-23T06:40:49.500Z,10.89
2022-12-23T06:45:52.160Z,10.82
2022-12-23T06:50:54.697Z,10.90
2022-12-23T06:56:02.440Z,10.73
2022-12-23T07:01:05.393Z,10.91
2022-12-23T07:06:08.454Z,10.81
2022-12-23T07:11:12.350Z,10.66
2022-12-23T07:16:15.527Z,10.90
2022-12-23T07:21:26.721Z,10.81
2022-12-23T07:26:32.355Z,10.74
2022-12-23T07:31:38.068Z,10.72
2022-12-23T07:36:43.248Z,10.69
2022-12-23T07:41:47.232Z,10.74
2022-12-23T07:46:49.776Z,10.72
2022-12-23T07:51:52.354Z,10.67
2022-12-23T07:56:58.020Z,10.61
2022-12-23T08:02:00.654Z,10.86
2022-12-23T08:07:03.507Z,10.92
2022-12-23T08:12:07.971Z,10.86
2022-12-23T08:17:10.549Z,10.78
2022-12-23T08:22:13.237Z,10.76
2022-12-23T08:27:17.546Z,10.77
2022-12-23T08:32:20.250Z,10.76
2022-12-23T08:37:23.005Z,10.92
2022-12-23T08:42:26.973Z,10.90
2022-12-23T08:47:29.601Z,10.95
2022-12-23T08:52:32.159Z,10.96
2022-12-23T08:57:36.273Z,10.86
2022-12-23T09:02:38.932Z,10.89
2022-12-23T09:07:41.630Z,11.01
2022-12-23T09:12:45.533Z,11.06
2022-12-23T09:17:48.417Z,11.10
2022-12-23T09:22:51.432Z,11.11
2022-12-23T09:27:55.310Z,11.11
2022-12-23T09:32:57.840Z,11.12
2022-12-23T09:38:00.387Z,11.10
2022-12-23T09:43:14.406Z,11.07
2022-12-23T09:48:21.492Z,11.07
2022-12-23T09:53:30.932Z,11.10
2022-12-23T09:58:44.352Z,11.19
2022-12-23T10:04:32.132Z,11.18
2022-12-23T10:09:39.560Z,10.73
2022-12-23T10:14:45.497Z,11.21
2022-12-23T10:19:50.178Z,11.24
2022-12-23T10:24:54.870Z,11.21
2022-12-23T10:30:19.955Z,11.24
2022-12-23T10:35:43.375Z,11.26
2022-12-23T10:41:06.948Z,11.23
2022-12-23T10:46:22.345Z,11.23
2022-12-23T10:51:31.008Z,11.04
2022-12-23T10:56:33.797Z,11.18
2022-12-23T11:01:38.041Z,11.31
2022-12-23T11:06:44.543Z,11.41
2022-12-23T11:11:58.006Z,11.42
2022-12-23T11:17:02.310Z,11.36
2022-12-23T11:22:04.917Z,11.43
2022-12-23T11:27:13.369Z,11.47
2022-12-23T11:32:21.443Z,11.36
2022-12-23T11:37:29.065Z,11.39
2022-12-23T11:42:34.978Z,11.41
2022-12-23T11:47:41.052Z,11.41
2022-12-23T11:52:52.097Z,11.51
2022-12-23T11:57:55.071Z,11.50
2022-12-23T12:03:01.024Z,11.52
2022-12-23T12:08:07.547Z,11.47
2022-12-23T12:13:23.977Z,11.41
2022-12-23T12:18:28.627Z,11.41
2022-12-23T12:23:41.311Z,11.36
2022-12-23T12:28:46.926Z,11.33
2022-12-23T12:33:54.580Z,11.35
2022-12-23T12:38:59.979Z,11.33
2022-12-23T12:44:11.409Z,11.35
2022-12-23T12:49:24.832Z,11.33
2022-12-23T12:54:33.190Z,11.29
2022-12-23T12:59:37.777Z,11.31
2022-12-23T13:05:10.138Z,11.34
2022-12-23T13:10:19.381Z,11.43
2022-12-23T13:15:27.502Z,11.26
2022-12-23T13:20:37.874Z,11.56
2022-12-23T13:25:44.598Z,11.46
2022-12-23T13:30:53.982Z,11.52
2022-12-23T13:36:07.339Z,11.45
2022-12-23T13:41:18.270Z,11.41
2022-12-23T13:46:27.590Z,11.45
2022-12-23T13:51:38.164Z,11.20
2022-12-23T13:56:47.650Z,11.30
2022-12-23T14:01:52.757Z,11.30
2022-12-23T14:06:59.209Z,11.34
2022-12-23T14:12:17.433Z,11.29
2022-12-23T14:17:28.613Z,11.36
2022-12-23T14:22:43.840Z,11.35
2022-12-23T14:27:55.888Z,11.31
2022-12-23T14:33:00.351Z,11.33
2022-12-23T14:38:12.009Z,11.25
2022-12-23T14:43:52.598Z,11.19
2022-12-23T14:49:39.517Z,11.30
2022-12-23T14:55:00.348Z,11.31
2022-12-23T15:00:10.679Z,11.33
2022-12-23T15:05:14.112Z,11.38
2022-12-23T15:10:21.105Z,11.31
2022-12-23T15:15:26.447Z,11.42
2022-12-23T15:20:29.050Z,11.42
2022-12-23T15:25:36.133Z,11.19
2022-12-23T15:30:49.328Z,11.17
2022-12-23T15:35:52.618Z,11.19
2022-12-23T15:41:01.025Z,11.23
2022-12-23T15:46:09.528Z,11.34
2022-12-23T15:51:30.514Z,11.32
2022-12-23T15:56:46.466Z,11.36
2022-12-23T16:01:49.686Z,11.51
2022-12-23T16:06:52.946Z,11.51
2022-12-23T16:11:59.142Z,11.63
2022-12-23T16:17:02.393Z,11.76
2022-12-23T16:22:07.648Z,11.98
2022-12-23T16:27:16.820Z,12.09
2022-12-23T16:32:20.688Z,12.31
2022-12-23T16:37:23.309Z,12.30
2022-12-23T16:42:27.214Z,12.19
2022-12-23T16:47:30.014Z,12.19
2022-12-23T16:52:33.409Z,12.38
2022-12-23T16:57:37.326Z,12.46
2022-12-23T17:02:40.451Z,12.62
2022-12-23T17:07:45.364Z,12.67
2022-12-23T17:12:51.282Z,12.72
2022-12-23T17:17:54.716Z,12.45
2022-12-23T17:23:00.534Z,12.78
2022-12-23T17:28:11.045Z,12.90
2022-12-23T17:33:18.541Z,12.93
2022-12-23T17:38:22.151Z,12.86
2022-12-23T17:43:26.573Z,12.89
2022-12-23T17:48:31.843Z,12.99
2022-12-23T17:53:34.975Z,12.96
2022-12-23T17:58:39.315Z,12.94
2022-12-23T18:03:41.933Z,13.01
2022-12-23T18:08:44.527Z,13.00
2022-12-23T18:13:49.018Z,12.77
2022-12-23T18:18:51.802Z,12.87
2022-12-23T18:23:56.445Z,12.96
2022-12-23T18:29:00.351Z,12.75
2022-12-23T18:34:02.956Z,12.79
2022-12-23T18:39:05.531Z,12.81
2022-12-23T18:44:16.952Z,12.89
2022-12-23T18:49:19.528Z,12.66
2022-12-23T18:54:22.140Z,12.67
2022-12-23T18:59:29.920Z,12.69
2022-12-23T19:04:32.890Z,12.61
2022-12-23T19:09:35.435Z,12.81
2022-12-23T19:14:41.151Z,12.57
2022-12-23T19:19:43.733Z,12.61
2022-12-23T19:25:03.810Z,12.62
2022-12-23T19:30:13.635Z,12.72
2022-12-23T19:35:16.241Z,12.66
2022-12-23T19:40:19.068Z,12.62
2022-12-23T19:45:22.962Z,12.64
2022-12-23T19:50:27.004Z,12.59
2022-12-23T19:55:29.628Z,12.36
2022-12-23T20:00:33.589Z,12.59
2022-12-23T20:05:36.134Z,12.67
2022-12-23T20:10:38.703Z,12.71
2022-12-23T20:15:42.658Z,12.68
2022-12-23T20:20:45.652Z,12.52
2022-12-23T20:25:48.843Z,12.60
2022-12-23T20:31:00.718Z,12.86
2022-12-23T20:36:03.727Z,12.70
2022-12-23T20:41:06.879Z,12.59
2022-12-23T20:46:14.490Z,12.63
2022-12-23T20:51:18.903Z,12.58
2022-12-23T20:56:27.267Z,12.50
2022-12-23T21:01:33.050Z,12.61
2022-12-23T21:06:36.441Z,12.37
2022-12-23T21:11:42.774Z,12.35
2022-12-23T21:16:46.802Z,12.26
2022-12-23T21:21:51.988Z,12.34
2022-12-23T21:26:56.945Z,12.17
2022-12-23T21:32:01.355Z,12.17
2022-12-23T21:37:04.618Z,12.16
2022-12-23T21:42:07.591Z,12.05
2022-12-23T21:47:11.603Z,12.23
2022-12-23T21:52:14.342Z,12.27
2022-12-23T21:57:16.985Z,12.39
2022-12-23T22:02:20.870Z,12.29
2022-12-23T22:07:23.434Z,12.27
2022-12-23T22:12:26.028Z,12.21
2022-12-23T22:17:29.943Z,12.35
2022-12-23T22:22:33.117Z,12.31
2022-12-23T22:27:35.654Z,12.40
2022-12-23T22:32:42.513Z,12.34
2022-12-23T22:37:45.432Z,12.22
2022-12-23T22:42:47.979Z,12.44
2022-12-23T22:47:51.868Z,12.40
2022-12-23T22:52:54.588Z,12.13
2022-12-23T22:57:57.206Z,12.26
2022-12-23T23:03:01.148Z,12.41
2022-12-23T23:08:03.699Z,12.45
2022-12-23T23:13:06.398Z,12.34
2022-12-23T23:18:10.299Z,12.31
2022-12-23T23:23:13.290Z,12.20
2022-12-23T23:28:16.060Z,12.39
2022-12-23T23:33:19.953Z,12.39
2022-12-23T23:38:22.652Z,12.35
2022-12-23T23:43:25.662Z,12.46
2022-12-23T23:48:29.579Z,12.47
2022-12-23T23:53:32.133Z,12.36
2022-12-23T23:58:35.891Z,12.31
